Time;durP1;ratioP1;P1;durP2;ratioP2;P2;SDS_P1;SDS_P2;PMS_P1;PMS_P2;Temp;Humidity;BMP_temperature;BMP_pressure;BME280_temperature;BME280_humidity;BME280_pressure;Samples;Min_cycle;Max_cycle;Signal;HPM_P1;HPM_P2
2022/11/25 00:00:53;;;;;;;2.42;2.30;;;;;;;10.89;62.66;97829.69;5053237;28;20177;-55
2022/11/25 00:03:18;;;;;;;2.10;2.00;;;;;;;10.82;62.26;97837.13;5054259;28;20559;-55
2022/11/25 00:05:43;;;;;;;2.30;2.20;;;;;;;10.78;62.32;97837.47;5053928;28;20209;-54
2022/11/25 00:08:09;;;;;;;2.22;2.03;;;;;;;10.78;61.83;97837.47;5054210;28;20178;-55
2022/11/25 00:10:35;;;;;;;2.47;2.28;;;;;;;10.74;62.68;97841.25;5054221;28;20170;-55
2022/11/25 00:13:02;;;;;;;1.90;1.80;;;;;;;10.74;62.47;97831.69;5054096;28;20166;-55
2022/11/25 00:15:28;;;;;;;2.20;2.10;;;;;;;10.74;61.97;97843.84;5054042;28;20196;-55
2022/11/25 00:17:53;;;;;;;2.13;2.03;;;;;;;10.73;61.96;97840.41;5054148;28;20654;-54
2022/11/25 00:20:21;;;;;;;1.80;1.70;;;;;;;10.72;61.97;97843.94;5053912;28;20721;-55
2022/11/25 00:22:47;;;;;;;1.88;1.70;;;;;;;10.73;61.62;97843.00;5053778;28;20201;-55
2022/11/25 00:25:12;;;;;;;2.30;2.20;;;;;;;10.69;61.98;97857.09;5052514;28;20220;-55
2022/11/25 00:27:37;;;;;;;2.33;2.15;;;;;;;10.68;61.60;97846.91;5053841;28;20558;-55
2022/11/25 00:30:05;;;;;;;2.20;2.00;;;;;;;10.65;61.61;97841.94;5053878;28;20180;-55
2022/11/25 00:32:32;;;;;;;1.83;1.73;;;;;;;10.62;62.01;97843.00;5053817;28;20173;-55
2022/11/25 00:34:57;;;;;;;2.05;1.95;;;;;;;10.70;61.25;97853.59;5053819;28;20177;-55
2022/11/25 00:37:23;;;;;;;1.92;1.83;;;;;;;10.73;61.13;97852.53;5053070;28;20170;-55
2022/11/25 00:39:48;;;;;;;1.80;1.80;;;;;;;10.71;59.79;97857.00;5053482;28;20190;-55
2022/11/25 00:44:58;;;;;;;2.05;1.95;;;;;;;10.73;60.37;97852.53;5053894;28;20172;-55
2022/11/25 00:47:23;;;;;;;2.20;2.10;;;;;;;10.77;60.24;97843.59;5053496;28;20597;-55
2022/11/25 00:49:52;;;;;;;1.95;1.85;;;;;;;10.83;59.72;97858.63;5053402;28;20223;-55
2022/11/25 00:52:23;;;;;;;1.90;1.80;;;;;;;10.80;59.80;97846.75;5053358;28;20178;-55
2022/11/25 00:54:49;;;;;;;2.83;2.30;;;;;;;10.81;59.37;97856.16;5053556;28;20558;-55
2022/11/25 00:57:16;;;;;;;1.73;1.63;;;;;;;10.81;59.19;97857.94;5053308;28;20181;-55
2022/11/25 00:59:41;;;;;;;2.05;1.95;;;;;;;10.78;59.52;97855.56;5051827;28;20205;-55
2022/11/25 01:02:08;;;;;;;1.83;1.73;;;;;;;10.73;59.38;97842.19;5053201;28;20661;-55
2022/11/25 01:04:34;;;;;;;1.60;1.50;;;;;;;10.70;59.61;97863.13;5053052;28;20219;-55
2022/11/25 01:07:01;;;;;;;1.60;1.50;;;;;;;10.72;58.95;97853.47;5052907;28;20250;-55
2022/11/25 01:09:27;;;;;;;1.88;1.65;;;;;;;10.70;59.09;97845.00;5053074;28;20166;-55
2022/11/25 01:11:53;;;;;;;1.38;1.38;;;;;;;10.66;59.24;97856.53;5053029;28;20227;-55
2022/11/25 01:14:19;;;;;;;2.70;1.73;;;;;;;10.68;59.49;97857.25;5052982;28;20169;-55
2022/11/25 01:16:45;;;;;;;1.70;1.60;;;;;;;10.66;59.62;97854.78;5052876;28;20181;-55
2022/11/25 01:19:11;;;;;;;1.63;1.40;;;;;;;10.67;59.61;97848.66;5052831;28;20198;-55
2022/11/25 01:21:37;;;;;;;2.70;1.70;;;;;;;10.64;60.29;97845.47;5052909;28;20169;-55
2022/11/25 01:24:04;;;;;;;1.98;1.80;;;;;;;10.64;59.72;97851.50;5051340;28;20177;-55
2022/11/25 01:26:31;;;;;;;1.42;1.40;;;;;;;10.74;59.38;97849.00;5051711;28;20178;-55
2022/11/25 01:29:02;;;;;;;1.52;1.42;;;;;;;10.68;59.45;97852.06;5052546;28;20177;-55
2022/11/25 01:31:31;;;;;;;1.75;1.65;;;;;;;10.71;59.80;97849.22;5052968;28;20174;-54
2022/11/25 01:34:05;;;;;;;1.85;1.75;;;;;;;10.75;59.46;97848.06;5053050;28;20177;-55
2022/11/25 01:36:31;;;;;;;1.70;1.40;;;;;;;10.76;59.75;97847.94;5052856;28;20649;-55
2022/11/25 01:38:59;;;;;;;1.63;1.52;;;;;;;10.75;59.63;97848.88;5052389;28;20194;-55
2022/11/25 01:41:27;;;;;;;1.50;1.40;;;;;;;10.76;59.75;97857.47;5052715;28;20181;-55
2022/11/25 01:44:16;;;;;;;1.70;1.60;;;;;;;10.66;60.50;97848.75;5052382;28;20658;-55
2022/11/25 01:47:02;;;;;;;1.77;1.67;;;;;;;10.60;60.63;97857.84;5052519;28;20166;-55
2022/11/25 01:49:36;;;;;;;1.73;1.63;;;;;;;10.58;60.92;97864.06;5050056;28;20666;-55
2022/11/25 01:52:08;;;;;;;1.60;1.50;;;;;;;10.56;60.85;97868.53;5052165;28;20183;-55
2022/11/25 01:55:00;;;;;;;1.02;1.02;;;;;;;10.51;60.89;97855.94;5052377;28;20182;-55
2022/11/25 01:57:36;;;;;;;1.73;1.63;;;;;;;10.50;61.17;97858.69;5052067;28;20209;-55
2022/11/25 02:00:06;;;;;;;3.33;1.70;;;;;;;10.49;60.99;97857.84;5052082;28;20190;-55
2022/11/25 02:02:32;;;;;;;1.17;1.17;;;;;;;10.45;61.03;97868.53;5052230;28;20216;-55
2022/11/25 02:05:00;;;;;;;1.83;1.52;;;;;;;10.47;61.41;97871.81;5051832;28;20197;-55
2022/11/25 02:07:36;;;;;;;1.42;1.33;;;;;;;10.42;61.10;97871.34;5051872;28;20208;-55
2022/11/25 02:10:07;;;;;;;1.70;1.60;;;;;;;10.42;61.58;97868.75;5052000;28;20180;-55
2022/11/25 02:12:35;;;;;;;1.50;1.50;;;;;;;10.42;61.78;97866.19;5051951;28;20508;-55
2022/11/25 02:15:03;;;;;;;1.60;1.50;;;;;;;10.38;61.83;97867.34;5051887;28;20202;-55
2022/11/25 02:17:29;;;;;;;1.85;1.73;;;;;;;10.41;61.36;97864.53;5051882;28;20182;-55
2022/11/25 02:20:00;;;;;;;1.70;1.60;;;;;;;10.45;61.67;97865.97;5051841;28;20269;-54
2022/11/25 02:22:59;;;;;;;1.88;1.77;;;;;;;10.42;61.93;97877.34;5051645;28;20215;-55
2022/11/25 02:25:28;;;;;;;1.75;1.65;;;;;;;10.45;61.35;97877.09;5051656;28;20178;-55
2022/11/25 02:27:59;;;;;;;1.90;1.80;;;;;;;10.48;61.73;97865.72;5051918;28;20565;-55
2022/11/25 02:30:25;;;;;;;1.70;1.60;;;;;;;10.52;61.10;97861.94;5051544;28;20186;-54
2022/11/25 02:32:50;;;;;;;1.50;1.40;;;;;;;10.50;61.17;97869.03;5051587;28;20681;-55
2022/11/25 02:35:32;;;;;;;1.50;1.50;;;;;;;10.45;61.24;97855.63;5051589;28;20676;-55
2022/11/25 02:38:05;;;;;;;1.80;1.55;;;;;;;10.46;61.51;97860.63;5051823;28;20238;-55
2022/11/25 02:40:35;;;;;;;1.60;1.60;;;;;;;10.46;61.78;97862.44;5051857;28;20232;-55
2022/11/25 02:43:00;;;;;;;1.95;1.45;;;;;;;10.49;60.72;97864.75;5051834;28;20185;-55
2022/11/25 02:45:34;;;;;;;1.80;1.70;;;;;;;10.42;61.02;97864.44;5051804;28;20181;-55
2022/11/25 02:47:59;;;;;;;1.85;1.75;;;;;;;10.43;60.72;97850.56;5051634;28;20168;-55
2022/11/25 02:50:25;;;;;;;1.63;1.52;;;;;;;10.43;60.83;97855.72;5051775;28;20211;-55
2022/11/25 02:52:50;;;;;;;1.50;1.50;;;;;;;10.43;60.93;97858.31;5051505;28;20701;-55
2022/11/25 02:55:16;;;;;;;1.85;1.75;;;;;;;10.44;60.79;97859.94;5051370;28;20174;-55
2022/11/25 02:57:41;;;;;;;2.03;1.92;;;;;;;10.44;60.94;97866.91;5050186;28;20185;-55
2022/11/25 03:00:07;;;;;;;1.63;1.63;;;;;;;10.42;60.80;97861.84;5053401;28;20251;-55
2022/11/25 03:02:32;;;;;;;1.55;1.55;;;;;;;10.43;60.88;97878.16;5055387;28;20174;-55
2022/11/25 03:04:58;;;;;;;1.60;1.50;;;;;;;10.45;60.53;97876.31;5055528;28;20197;-55
2022/11/25 03:07:23;;;;;;;1.80;1.70;;;;;;;10.42;60.82;97877.34;5055244;28;20229;-55
2022/11/25 03:09:49;;;;;;;1.60;1.50;;;;;;;10.38;61.03;97869.94;5055430;28;20185;-55
2022/11/25 03:12:20;;;;;;;1.85;1.75;;;;;;;10.49;59.99;97869.94;5053948;28;20662;-55
2022/11/25 03:14:46;;;;;;;1.92;1.63;;;;;;;10.48;60.15;97873.47;5055155;28;20212;-54
2022/11/25 03:17:12;;;;;;;1.60;1.50;;;;;;;10.44;59.67;97893.56;5055451;28;20173;-55
2022/11/25 03:19:38;;;;;;;2.00;1.90;;;;;;;10.47;60.10;97869.25;5055000;28;20228;-55
2022/11/25 03:22:03;;;;;;;2.45;1.42;;;;;;;10.49;60.06;97872.53;5055069;28;20184;-54
2022/11/25 03:24:29;;;;;;;1.98;1.67;;;;;;;10.48;59.75;97878.63;5054980;28;20173;-55
2022/11/25 03:26:54;;;;;;;1.77;1.67;;;;;;;10.42;59.62;97890.28;5054861;28;20172;-55
2022/11/25 03:29:20;;;;;;;1.30;1.30;;;;;;;10.42;59.97;97885.13;5054890;28;20625;-55
2022/11/25 03:31:45;;;;;;;1.60;1.50;;;;;;;10.39;59.84;97879.34;5054904;28;20174;-55
2022/11/25 03:34:11;;;;;;;1.90;1.80;;;;;;;10.40;60.19;97888.75;5054925;28;20178;-55
2022/11/25 03:36:37;;;;;;;1.33;1.23;;;;;;;10.39;59.66;97893.09;5054824;28;20277;-55
2022/11/25 03:39:03;;;;;;;1.20;1.20;;;;;;;10.41;57.94;97901.56;5054851;28;20741;-55
2022/11/25 03:41:28;;;;;;;1.30;1.30;;;;;;;10.43;58.29;97889.34;5054702;28;20189;-55
2022/11/25 03:43:54;;;;;;;1.40;1.30;;;;;;;10.48;57.94;97882.06;5054722;28;20205;-55
2022/11/25 03:46:19;;;;;;;1.70;1.60;;;;;;;10.47;57.35;97879.59;5054749;28;20720;-55
2022/11/25 03:48:44;;;;;;;1.67;1.63;;;;;;;10.45;57.46;97876.31;5054539;28;20173;-54
2022/11/25 03:51:10;;;;;;;1.48;1.38;;;;;;;10.50;56.88;97877.59;5054502;28;20186;-55
2022/11/25 03:53:35;;;;;;;1.35;1.35;;;;;;;10.48;56.72;97884.66;5054479;28;20170;-55
2022/11/25 03:56:01;;;;;;;1.40;1.30;;;;;;;10.46;57.25;97899.44;5054765;28;20176;-55
2022/11/25 03:58:26;;;;;;;1.35;1.30;;;;;;;10.52;56.67;97880.06;5054254;28;20757;-55
2022/11/25 04:00:52;;;;;;;1.45;1.45;;;;;;;10.57;55.67;97880.53;5054259;28;20174;-55
2022/11/25 04:03:17;;;;;;;1.63;1.50;;;;;;;10.58;56.20;97892.53;5054327;28;20208;-55
2022/11/25 04:05:42;;;;;;;1.25;1.25;;;;;;;10.58;56.14;97888.19;5054011;28;20236;-55
2022/11/25 04:08:08;;;;;;;1.55;1.50;;;;;;;10.60;55.99;97900.97;5054452;28;20303;-55
2022/11/25 04:10:34;;;;;;;1.40;1.30;;;;;;;10.68;53.68;97907.22;5053714;28;20205;-55
2022/11/25 04:13:00;;;;;;;1.30;1.20;;;;;;;10.69;52.86;97908.03;5053761;28;20192;-55
2022/11/25 04:15:25;;;;;;;1.63;1.20;;;;;;;10.68;52.16;97903.81;5054122;28;20177;-55
2022/11/25 04:17:51;;;;;;;1.00;1.00;;;;;;;10.72;52.57;97897.44;5053947;28;20182;-55
2022/11/25 04:20:16;;;;;;;1.40;1.40;;;;;;;10.69;52.66;97908.03;5053959;28;20201;-54
2022/11/25 04:22:42;;;;;;;1.30;1.17;;;;;;;10.72;51.88;97911.22;5054162;28;20232;-55
2022/11/25 04:25:08;;;;;;;1.33;1.23;;;;;;;10.71;52.76;97906.16;5053914;28;20556;-55
2022/11/25 04:27:33;;;;;;;1.20;1.20;;;;;;;10.62;51.95;97899.91;5053928;28;20557;-55
2022/11/25 04:29:59;;;;;;;0.90;0.90;;;;;;;10.69;50.57;97911.44;5053780;28;20165;-55
2022/11/25 04:32:25;;;;;;;1.10;1.05;;;;;;;10.73;49.66;97904.28;5053845;28;20172;-55
2022/11/25 04:34:50;;;;;;;1.10;1.10;;;;;;;10.76;49.21;97902.28;5053744;28;20177;-55
2022/11/25 04:37:15;;;;;;;0.90;0.90;;;;;;;10.76;49.45;97911.81;5053953;28;20180;-55
2022/11/25 04:39:41;;;;;;;1.45;1.10;;;;;;;10.79;49.99;97916.75;5053960;28;20202;-55
2022/11/25 04:44:50;;;;;;;1.08;1.08;;;;;;;10.78;49.89;97925.44;5054048;28;20653;-55
2022/11/25 04:47:16;;;;;;;1.20;1.10;;;;;;;10.78;50.54;97922.84;5053678;28;20174;-55
2022/11/25 04:49:41;;;;;;;1.00;1.00;;;;;;;10.78;50.98;97904.72;5052070;28;20173;-55
2022/11/25 04:52:06;;;;;;;1.27;1.05;;;;;;;10.77;51.32;97918.63;5053394;28;20256;-54
2022/11/25 04:54:32;;;;;;;1.20;1.20;;;;;;;10.81;51.45;97920.03;5053310;28;20643;-55
2022/11/25 04:56:57;;;;;;;1.75;1.00;;;;;;;10.79;51.64;97921.94;5053293;28;20177;-55
2022/11/25 04:59:41;;;;;;;6.22;1.20;;;;;;;10.75;52.09;97925.69;5053318;28;20283;-55
2022/11/25 05:02:23;;;;;;;1.40;1.30;;;;;;;10.83;52.14;97928.50;5053516;28;20158;-55
2022/11/25 05:04:52;;;;;;;1.52;1.40;;;;;;;10.82;52.23;97921.69;5053303;28;20731;-55
2022/11/25 05:07:20;;;;;;;1.95;1.27;;;;;;;10.84;52.35;97948.25;5052923;28;20304;-55
2022/11/25 05:09:46;;;;;;;1.20;1.20;;;;;;;10.84;51.89;97945.66;5053052;28;20562;-55
2022/11/25 05:12:14;;;;;;;1.10;1.10;;;;;;;10.81;52.51;97935.56;5053292;28;20169;-54
2022/11/25 05:14:39;;;;;;;1.27;1.27;;;;;;;10.70;52.41;97943.31;5052896;28;20181;-54
2022/11/25 05:17:06;;;;;;;1.30;1.30;;;;;;;10.71;52.85;97944.97;5053180;28;20181;-55
2022/11/25 05:19:32;;;;;;;1.20;1.20;;;;;;;10.73;52.80;97943.09;5052772;28;20698;-55
2022/11/25 05:21:57;;;;;;;1.60;1.50;;;;;;;10.68;53.63;97937.44;5053025;28;20184;-55
2022/11/25 05:24:24;;;;;;;1.50;1.50;;;;;;;10.75;53.18;97943.81;5051425;28;20655;-54
2022/11/25 05:26:50;;;;;;;1.30;1.20;;;;;;;10.78;53.17;97956.50;5052869;28;20170;-55
2022/11/25 05:29:16;;;;;;;1.83;1.73;;;;;;;10.76;53.07;97954.03;5052559;28;20199;-54
2022/11/25 05:31:41;;;;;;;1.30;1.20;;;;;;;10.79;53.05;97963.34;5052784;28;20239;-55
2022/11/25 05:34:07;;;;;;;1.05;1.05;;;;;;;10.78;53.56;97959.06;5052590;28;20717;-55
2022/11/25 05:36:32;;;;;;;1.73;1.50;;;;;;;10.76;53.75;97966.97;5052840;28;20173;-55
2022/11/25 05:38:58;;;;;;;1.40;1.30;;;;;;;10.77;53.61;97975.53;5052761;28;20618;-55
2022/11/25 05:41:24;;;;;;;1.38;1.30;;;;;;;10.77;53.60;97976.38;5052462;28;20197;-54
2022/11/25 05:43:50;;;;;;;1.77;1.67;;;;;;;10.72;53.71;97977.66;5052533;28;20193;-55
2022/11/25 05:46:16;;;;;;;1.38;1.13;;;;;;;10.63;53.58;97988.72;5052380;28;20617;-54
2022/11/25 05:48:41;;;;;;;1.40;1.30;;;;;;;10.56;54.24;97984.94;5052326;28;20257;-54
2022/11/25 05:51:08;;;;;;;1.20;1.10;;;;;;;10.61;54.35;98009.53;5052335;28;20166;-54
2022/11/25 05:53:34;;;;;;;1.10;1.10;;;;;;;10.63;54.57;98002.47;5052381;28;20561;-55
2022/11/25 05:56:02;;;;;;;1.23;1.23;;;;;;;10.61;54.68;98009.53;5052509;28;20177;-55
2022/11/25 05:58:29;;;;;;;1.35;1.15;;;;;;;10.64;55.09;98011.06;5052355;28;20654;-54
2022/11/25 06:00:55;;;;;;;3.17;1.30;;;;;;;10.68;54.92;98012.47;5052124;28;20170;-55
2022/11/25 06:03:28;;;;;;;1.00;1.00;;;;;;;10.67;55.00;98022.00;5052248;28;20185;-55
2022/11/25 06:05:58;;;;;;;0.93;0.93;;;;;;;10.70;55.71;98026.97;5051806;28;20209;-54
2022/11/25 06:08:24;;;;;;;1.48;1.40;;;;;;;10.71;55.11;98036.34;5050740;28;20598;-55
2022/11/25 06:10:50;;;;;;;1.10;1.00;;;;;;;10.71;55.07;98027.75;5052020;28;20207;-55
2022/11/25 06:13:15;;;;;;;1.50;1.40;;;;;;;10.69;54.83;98029.66;5051979;28;20201;-54
2022/11/25 06:15:42;;;;;;;1.50;1.40;;;;;;;10.67;55.29;98042.69;5051815;28;20178;-55
2022/11/25 06:18:08;;;;;;;1.63;1.20;;;;;;;10.68;54.91;98051.28;5051709;28;20177;-55
2022/11/25 06:20:33;;;;;;;1.30;1.20;;;;;;;10.72;54.65;98050.94;5051788;28;20200;-55
2022/11/25 06:22:59;;;;;;;1.15;1.10;;;;;;;10.72;54.60;98053.53;5051782;28;20174;-54
2022/11/25 06:25:25;;;;;;;1.08;1.00;;;;;;;10.76;54.05;98054.13;5051685;28;20204;-55
2022/11/25 06:27:50;;;;;;;1.45;1.35;;;;;;;10.77;54.41;98048.00;5051658;28;20205;-55
2022/11/25 06:30:16;;;;;;;1.30;1.30;;;;;;;10.82;54.52;98038.97;5051560;28;20170;-55
2022/11/25 06:32:42;;;;;;;1.20;1.10;;;;;;;10.88;53.28;98073.91;5051684;28;20174;-55
2022/11/25 06:35:08;;;;;;;1.10;1.10;;;;;;;10.85;53.70;98063.81;5051425;28;20623;-55
2022/11/25 06:37:34;;;;;;;0.85;0.85;;;;;;;10.87;53.56;98100.72;5051566;28;20605;-55
2022/11/25 06:39:59;;;;;;;1.10;1.00;;;;;;;10.78;53.63;98076.34;5051740;28;20225;-55
2022/11/25 06:42:25;;;;;;;1.10;1.10;;;;;;;10.80;53.91;98061.53;5051583;28;20228;-55
2022/11/25 06:44:50;;;;;;;1.17;1.17;;;;;;;10.79;54.00;98080.59;5051526;28;20173;-55
2022/11/25 06:47:15;;;;;;;1.92;1.30;;;;;;;10.78;54.27;98091.88;5051482;28;20181;-55
2022/11/25 06:49:41;;;;;;;1.27;1.25;;;;;;;10.82;54.06;98105.41;5051416;28;20328;-55
2022/11/25 06:52:07;;;;;;;1.52;0.90;;;;;;;10.79;54.01;98097.91;5051428;28;20176;-55
2022/11/25 06:54:32;;;;;;;1.10;1.10;;;;;;;10.80;54.45;98104.72;5051319;28;20177;-55
2022/11/25 06:56:58;;;;;;;1.08;1.08;;;;;;;10.82;53.91;98102.84;5051219;28;20185;-55
2022/11/25 06:59:23;;;;;;;1.10;1.00;;;;;;;10.83;53.83;98100.13;5051278;28;20196;-55
2022/11/25 07:01:49;;;;;;;1.10;1.10;;;;;;;10.89;53.74;98104.00;5051423;28;20181;-55
2022/11/25 07:04:14;;;;;;;1.25;1.15;;;;;;;10.94;53.59;98102.75;5051379;28;20274;-55
2022/11/25 07:06:39;;;;;;;1.30;1.20;;;;;;;10.90;53.74;98106.50;5051120;28;20198;-54
2022/11/25 07:09:05;;;;;;;1.20;1.10;;;;;;;11.00;53.40;98122.16;5049902;28;20219;-55
2022/11/25 07:11:34;;;;;;;1.38;1.27;;;;;;;10.97;53.07;98112.88;5052025;28;20261;-55
2022/11/25 07:14:02;;;;;;;1.13;1.08;;;;;;;10.96;54.08;98120.72;5051344;28;20182;-55
2022/11/25 07:16:28;;;;;;;0.98;0.98;;;;;;;10.98;53.58;98122.28;5051127;28;20178;-55
2022/11/25 07:18:54;;;;;;;1.00;1.00;;;;;;;11.03;53.62;98124.53;5050847;28;20546;-55
2022/11/25 07:21:22;;;;;;;1.10;1.10;;;;;;;11.03;53.38;98109.81;5051061;28;20178;-55
2022/11/25 07:23:49;;;;;;;0.98;0.98;;;;;;;11.01;53.00;98123.81;5051172;28;20174;-55
2022/11/25 07:26:18;;;;;;;1.10;1.10;;;;;;;10.94;53.24;98118.28;5051238;28;20710;-55
2022/11/25 07:28:44;;;;;;;1.25;1.13;;;;;;;11.01;53.28;98140.19;5051135;28;20174;-55
2022/11/25 07:31:09;;;;;;;1.13;1.10;;;;;;;10.99;53.58;98129.13;5051087;28;20173;-55
2022/11/25 07:33:35;;;;;;;1.92;1.15;;;;;;;11.03;53.32;98127.94;5051157;28;20606;-55
2022/11/25 07:36:02;;;;;;;1.23;1.17;;;;;;;10.99;53.16;98136.06;5051101;28;20609;-56
2022/11/25 07:38:28;;;;;;;1.65;1.13;;;;;;;10.90;53.87;98153.09;5051189;28;20170;-55
2022/11/25 07:40:53;;;;;;;1.40;1.30;;;;;;;10.86;53.75;98136.13;5051066;28;20662;-55
2022/11/25 07:43:19;;;;;;;1.27;1.27;;;;;;;10.95;53.61;98144.97;5051050;28;20257;-55
2022/11/25 07:45:44;;;;;;;1.17;1.17;;;;;;;11.00;53.32;98142.88;5049703;28;20182;-55
2022/11/25 07:48:09;;;;;;;1.38;1.27;;;;;;;11.05;53.70;98149.38;5054397;28;20177;-55
2022/11/25 07:50:35;;;;;;;1.30;1.20;;;;;;;11.14;53.74;98155.63;5054478;28;20173;-55
2022/11/25 07:53:00;;;;;;;1.23;1.20;;;;;;;11.17;52.67;98160.56;5054641;28;20256;-55
2022/11/25 07:55:25;;;;;;;1.08;1.08;;;;;;;11.18;52.13;98151.84;5054394;28;20208;-55
2022/11/25 07:57:51;;;;;;;1.20;1.20;;;;;;;11.18;53.09;98177.75;5054363;28;20178;-55
2022/11/25 08:00:17;;;;;;;1.45;1.35;;;;;;;11.24;52.58;98172.94;5054207;28;20186;-55
2022/11/25 08:02:42;;;;;;;1.80;1.70;;;;;;;11.30;52.60;98182.84;5054215;28;20658;-55
2022/11/25 08:05:08;;;;;;;1.15;1.15;;;;;;;11.33;51.93;98176.63;5054121;28;20185;-55
2022/11/25 08:07:33;;;;;;;1.20;1.10;;;;;;;11.32;51.37;98177.56;5054058;28;20264;-55
2022/11/25 08:09:59;;;;;;;1.48;1.48;;;;;;;11.32;52.28;98180.97;5054166;28;20170;-55
2022/11/25 08:12:24;;;;;;;1.65;1.55;;;;;;;11.38;52.08;98193.44;5054285;28;20174;-55
2022/11/25 08:14:49;;;;;;;0.95;0.95;;;;;;;11.37;51.18;98183.22;5054475;28;20174;-55
2022/11/25 08:17:15;;;;;;;1.17;1.17;;;;;;;11.38;51.91;98200.41;5053907;28;20677;-55
2022/11/25 08:19:40;;;;;;;1.15;1.15;;;;;;;11.42;51.63;98191.44;5053721;28;20197;-55
2022/11/25 08:22:06;;;;;;;2.00;1.60;;;;;;;11.44;52.33;98190.41;5052578;28;20176;-55
2022/11/25 08:24:31;;;;;;;1.48;1.42;;;;;;;11.45;52.02;98186.84;5053870;28;20200;-55
2022/11/25 08:27:00;;;;;;;1.33;1.20;;;;;;;11.53;52.16;98176.75;5053754;28;20674;-55
2022/11/25 08:29:25;;;;;;;1.58;1.42;;;;;;;11.57;52.31;98198.09;5052406;28;20606;-55
2022/11/25 08:31:51;;;;;;;1.40;1.40;;;;;;;11.62;51.44;98198.59;5053715;28;20228;-55
2022/11/25 08:34:19;;;;;;;1.17;1.17;;;;;;;11.63;50.96;98187.28;5053651;28;20177;-55
2022/11/25 08:36:45;;;;;;;2.50;1.80;;;;;;;11.63;51.52;98187.28;5053871;28;20174;-55
2022/11/25 08:39:11;;;;;;;1.75;1.42;;;;;;;11.61;49.75;98194.34;5053580;28;20198;-54
2022/11/25 08:41:37;;;;;;;1.33;1.30;;;;;;;11.61;49.79;98202.94;5053559;28;20212;-55
2022/11/25 08:44:05;;;;;;;2.67;2.40;;;;;;;11.65;49.38;98187.97;5053497;28;20173;-55
2022/11/25 08:46:34;;;;;;;1.00;1.00;;;;;;;11.65;48.64;98203.53;5053620;28;20269;-55
2022/11/25 08:49:00;;;;;;;2.25;1.38;;;;;;;11.72;48.89;98205.53;5053639;28;20233;-55
2022/11/25 08:51:29;;;;;;;3.40;1.45;;;;;;;11.78;48.33;98192.09;5053509;28;20241;-55
2022/11/25 08:53:55;;;;;;;1.38;1.10;;;;;;;11.78;48.00;98215.44;5053501;28;20633;-55
2022/11/25 08:56:22;;;;;;;1.27;1.20;;;;;;;11.77;48.06;98207.78;5053190;28;20201;-55
2022/11/25 08:58:48;;;;;;;1.10;1.00;;;;;;;11.79;47.39;98205.91;5052548;28;20237;-55
2022/11/25 09:01:14;;;;;;;1.98;1.20;;;;;;;11.78;47.36;98204.25;5053073;28;20260;-55
2022/11/25 09:03:43;;;;;;;1.10;1.10;;;;;;;11.77;47.27;98213.78;5053030;28;20177;-54
2022/11/25 09:06:10;;;;;;;1.60;1.50;;;;;;;11.75;48.12;98205.31;5053068;28;20190;-55
2022/11/25 09:08:37;;;;;;;1.00;1.00;;;;;;;11.76;47.49;98219.09;5052938;28;20178;-55
2022/11/25 09:11:03;;;;;;;1.42;1.33;;;;;;;11.79;47.37;98200.72;5053212;28;20173;-55
2022/11/25 09:13:29;;;;;;;1.08;1.08;;;;;;;11.93;47.51;98192.69;5051663;28;20200;-55
2022/11/25 09:15:55;;;;;;;0.88;0.88;;;;;;;12.02;47.41;98199.78;5052892;28;20174;-55
2022/11/25 09:18:25;;;;;;;1.10;1.10;;;;;;;12.16;47.63;98195.16;5052632;28;20618;-55
2022/11/25 09:20:51;;;;;;;1.42;1.23;;;;;;;12.31;46.65;98211.31;5052717;28;20186;-55
2022/11/25 09:23:18;;;;;;;1.92;1.42;;;;;;;12.36;46.90;98212.56;5052972;28;20576;-55
2022/11/25 09:25:53;;;;;;;1.20;1.10;;;;;;;12.44;46.83;98205.00;5052587;28;20209;-55
2022/11/25 09:28:20;;;;;;;1.52;1.10;;;;;;;12.40;46.46;98203.63;5052773;28;20164;-55
2022/11/25 09:30:46;;;;;;;1.40;1.30;;;;;;;12.39;46.84;98211.50;5052657;28;20174;-55
2022/11/25 09:33:11;;;;;;;1.00;1.00;;;;;;;12.38;45.96;98202.09;5052624;28;20180;-55
2022/11/25 09:35:37;;;;;;;3.13;2.30;;;;;;;12.46;45.92;98204.88;5052496;28;20166;-55
2022/11/25 09:38:02;;;;;;;3.03;1.63;;;;;;;12.57;46.45;98207.44;5052511;28;20177;-55
2022/11/25 09:41:03;;;;;;;0.90;0.90;;;;;;;12.63;45.22;98202.63;5051125;28;20682;-55
2022/11/25 09:47:04;;;;;;;2.38;1.08;;;;;;;12.78;44.82;98205.75;5051159;28;20211;-55
2022/11/25 09:49:58;;;;;;;0.95;0.95;;;;;;;12.76;44.84;98199.84;5052144;28;20161;-55
2022/11/25 09:52:51;;;;;;;1.23;1.20;;;;;;;12.74;45.12;98193.94;5051878;28;20162;-55
2022/11/25 09:55:22;;;;;;;1.13;1.10;;;;;;;12.75;44.93;98193.84;5052497;28;20166;-55
2022/11/25 09:58:15;;;;;;;1.20;1.20;;;;;;;12.73;44.55;98194.91;5052034;28;20172;-55
2022/11/25 10:00:44;;;;;;;1.20;1.20;;;;;;;12.72;44.86;98208.84;5052258;28;20216;-55
2022/11/25 10:03:36;;;;;;;1.05;1.05;;;;;;;12.68;44.34;98190.09;5052203;28;20173;-55
2022/11/25 10:06:05;;;;;;;1.20;1.20;;;;;;;12.69;44.43;98191.72;5051693;28;20240;-55
2022/11/25 10:08:43;;;;;;;1.63;1.52;;;;;;;12.69;44.95;98209.06;5051864;28;20607;-55
2022/11/25 10:11:21;;;;;;;1.15;0.98;;;;;;;12.58;44.41;98198.72;5051875;28;20162;-55
2022/11/25 10:13:53;;;;;;;1.27;1.27;;;;;;;12.54;44.52;98186.94;5050566;28;20602;-55
2022/11/25 10:16:36;;;;;;;1.08;1.08;;;;;;;12.48;44.69;98196.03;5051970;28;20176;-55
2022/11/25 10:19:09;;;;;;;1.80;1.70;;;;;;;12.49;45.18;98184.69;5051787;28;20204;-55
2022/11/25 10:21:35;;;;;;;0.90;0.90;;;;;;;12.51;44.47;98195.81;5051750;28;20158;-55
2022/11/25 10:24:03;;;;;;;1.27;1.17;;;;;;;12.55;44.75;98201.56;5051599;28;20558;-55
2022/11/25 10:26:35;;;;;;;1.65;1.55;;;;;;;12.62;45.30;98189.75;5050701;28;20186;-55
2022/11/25 10:29:13;;;;;;;1.20;1.17;;;;;;;12.80;44.41;98196.88;5050304;28;20646;-55
2022/11/25 10:31:41;;;;;;;2.15;1.10;;;;;;;12.81;44.41;98177.75;5051537;28;20197;-55
2022/11/25 10:34:39;;;;;;;2.95;2.75;;;;;;;13.04;44.72;98181.09;5051531;28;20173;-55
2022/11/25 10:37:12;;;;;;;1.38;1.27;;;;;;;13.16;43.54;98187.88;5050658;28;20194;-55
2022/11/25 10:39:39;;;;;;;1.33;1.17;;;;;;;13.22;43.47;98177.81;5051456;28;20276;-55
2022/11/25 10:42:19;;;;;;;1.15;1.10;;;;;;;13.22;43.05;98182.19;5050265;28;20608;-55
2022/11/25 10:44:44;;;;;;;1.10;1.10;;;;;;;13.28;43.00;98194.66;5051800;28;20572;-55
2022/11/25 10:47:41;;;;;;;0.98;0.98;;;;;;;13.33;43.18;98189.91;5051483;28;20174;-55
2022/11/25 10:50:26;;;;;;;1.30;1.20;;;;;;;13.40;43.26;98191.88;5051742;28;20161;-55
2022/11/25 10:53:01;;;;;;;1.10;1.10;;;;;;;13.44;43.18;98193.28;5051666;28;20169;-55
2022/11/25 10:55:30;;;;;;;1.33;1.30;;;;;;;13.49;42.48;98191.13;5051379;28;20272;-55
2022/11/25 10:57:56;;;;;;;1.90;1.60;;;;;;;13.60;42.40;98201.44;5051305;28;20186;-56
2022/11/25 11:00:34;;;;;;;1.20;1.13;;;;;;;13.64;42.30;98189.81;5051396;28;20737;-55
2022/11/25 11:03:13;;;;;;;1.30;1.30;;;;;;;13.57;41.94;98196.50;5051273;28;20222;-55
2022/11/25 11:05:48;;;;;;;1.73;1.50;;;;;;;13.52;42.15;98190.03;5051112;28;20193;-55
2022/11/25 11:08:17;;;;;;;1.00;1.00;;;;;;;13.37;42.75;98171.34;5051061;28;20583;-55
2022/11/25 11:10:42;;;;;;;3.85;2.90;;;;;;;13.29;43.27;98175.56;5051516;28;20181;-55
2022/11/25 11:13:20;;;;;;;1.10;1.10;;;;;;;13.26;42.64;98199.19;5051190;28;20715;-56
2022/11/25 11:15:46;;;;;;;1.20;1.20;;;;;;;13.27;43.12;98185.22;5049907;28;20173;-55
2022/11/25 11:18:18;;;;;;;1.08;1.08;;;;;;;13.30;43.09;98182.41;5051351;28;20169;-55
2022/11/25 11:20:46;;;;;;;1.10;1.10;;;;;;;13.31;43.21;98194.44;5052141;28;20687;-55
2022/11/25 11:23:13;;;;;;;1.20;1.20;;;;;;;13.36;43.33;98200.06;5055201;28;20174;-55
2022/11/25 11:25:40;;;;;;;1.02;1.02;;;;;;;13.35;43.50;98195.84;5054946;28;20178;-55
2022/11/25 11:28:39;;;;;;;1.10;1.10;;;;;;;13.43;43.42;98199.44;5054867;28;20268;-55
2022/11/25 11:31:16;;;;;;;1.02;1.02;;;;;;;13.39;43.49;98195.44;5053903;28;20200;-56
2022/11/25 11:33:47;;;;;;;1.50;1.40;;;;;;;13.34;43.16;98200.19;5053481;28;20175;-55
2022/11/25 11:37:00;;;;;;;1.00;1.00;;;;;;;13.33;43.76;98197.72;5054823;28;20166;-55
2022/11/25 11:39:25;;;;;;;4.03;1.10;;;;;;;13.41;43.05;98195.31;5052234;28;20201;-55
2022/11/25 11:41:53;;;;;;;0.90;0.90;;;;;;;13.42;42.47;98199.56;5054071;28;20193;-55
2022/11/25 11:44:56;;;;;;;1.08;1.08;;;;;;;13.53;42.85;98202.91;5054640;28;20170;-55
2022/11/25 11:47:59;;;;;;;1.08;1.08;;;;;;;13.46;42.99;98201.78;5054429;28;20605;-56
2022/11/25 11:50:27;;;;;;;2.08;1.15;;;;;;;13.58;42.78;98211.16;5054234;28;20182;-55